createdAt,value
2018-07-12T00:00:16.073Z,18.71
2018-07-12T00:01:15.509Z,18.71
2018-07-12T00:02:15.757Z,18.7
2018-07-12T00:03:15.507Z,18.73
2018-07-12T00:04:15.505Z,18.73
2018-07-12T00:05:15.502Z,18.75
2018-07-12T00:06:15.776Z,18.78
2018-07-12T00:07:15.511Z,18.73
2018-07-12T00:08:15.764Z,18.71
2018-07-12T00:09:15.517Z,18.62
2018-07-12T00:10:15.641Z,18.63
2018-07-12T00:11:15.255Z,18.65
2018-07-12T00:12:15.515Z,18.65
2018-07-12T00:13:15.765Z,18.59
2018-07-12T00:14:15.762Z,18.62
2018-07-12T00:15:15.757Z,18.55
2018-07-12T00:16:15.509Z,18.63
2018-07-12T00:17:15.764Z,18.53
2018-07-12T00:18:15.506Z,18.55
2018-07-12T00:19:15.509Z,18.45
2018-07-12T00:20:15.761Z,18.37
2018-07-12T00:21:15.515Z,18.37
2018-07-12T00:22:15.765Z,18.34
2018-07-12T00:23:15.757Z,18.26
2018-07-12T00:24:15.785Z,18.25
2018-07-12T00:25:15.517Z,18.18
2018-07-12T00:26:15.772Z,18.16
2018-07-12T00:27:15.788Z,18.1
2018-07-12T00:28:15.769Z,18.13
2018-07-12T00:29:15.516Z,18.15
2018-07-12T00:30:15.531Z,18.08
2018-07-12T00:31:15.519Z,18.08
2018-07-12T00:32:15.522Z,18.03
2018-07-12T00:33:15.789Z,17.94
2018-07-12T00:34:15.512Z,17.94
2018-07-12T00:35:15.531Z,17.92
2018-07-12T00:36:15.521Z,17.95
2018-07-12T00:37:15.782Z,17.9
2018-07-12T00:38:15.269Z,18.07
2018-07-12T00:39:15.777Z,18.03
2018-07-12T00:40:15.776Z,18.04
2018-07-12T00:41:15.782Z,18.03
2018-07-12T00:42:15.766Z,18.05
2018-07-12T00:43:15.522Z,18.13
2018-07-12T00:44:15.771Z,18.13
2018-07-12T00:45:15.518Z,18.11
2018-07-12T00:46:15.789Z,18.18
2018-07-12T00:47:15.777Z,18.2
2018-07-12T00:48:15.792Z,18.2
2018-07-12T00:49:15.529Z,18.08
2018-07-12T00:50:15.779Z,18.18
2018-07-12T00:51:15.530Z,18.11
2018-07-12T00:52:15.792Z,18.16
2018-07-12T00:53:15.792Z,18.07
2018-07-12T00:54:15.782Z,18.16
2018-07-12T00:55:15.650Z,18.18
2018-07-12T00:56:15.538Z,18.31
2018-07-12T00:57:15.792Z,18.34
2018-07-12T00:58:15.780Z,18.28
2018-07-12T00:59:15.530Z,18.25
2018-07-12T01:00:16.051Z,18.2
2018-07-12T01:01:15.521Z,18.23
2018-07-12T01:02:15.280Z,18.22
2018-07-12T01:03:15.782Z,18.22
2018-07-12T01:04:15.535Z,18.15
2018-07-12T01:05:15.806Z,18.16
2018-07-12T01:06:15.277Z,18.16
2018-07-12T01:07:15.531Z,18.15
2018-07-12T01:08:15.528Z,18.23
2018-07-12T01:09:15.787Z,18.26
2018-07-12T01:10:15.538Z,18.31
2018-07-12T01:11:15.538Z,18.5
2018-07-12T01:12:15.808Z,18.38
2018-07-12T01:13:15.781Z,18.38
2018-07-12T01:14:15.537Z,18.43
2018-07-12T01:15:15.536Z,18.41
2018-07-12T01:16:15.538Z,18.37
2018-07-12T01:17:15.808Z,18.35
2018-07-12T01:18:15.809Z,18.49
2018-07-12T01:19:15.551Z,18.43
2018-07-12T01:20:15.798Z,18.44
2018-07-12T01:21:15.805Z,18.37
2018-07-12T01:22:15.529Z,18.44
2018-07-12T01:23:15.766Z,18.29
2018-07-12T01:24:15.782Z,18.29
2018-07-12T01:25:16.321Z,18.22
2018-07-12T01:26:15.534Z,18.2
2018-07-12T01:27:15.788Z,18.08
2018-07-12T01:28:15.851Z,18.03
2018-07-12T01:29:15.537Z,18.04
2018-07-12T01:30:16.044Z,17.94
2018-07-12T01:31:15.535Z,18.04
2018-07-12T01:32:15.820Z,18.18
2018-07-12T01:33:15.797Z,18.16
2018-07-12T01:34:15.808Z,18.18
2018-07-12T01:35:15.555Z,18.15
2018-07-12T01:36:16.097Z,18.03
2018-07-12T01:37:15.541Z,17.94
2018-07-12T01:38:15.538Z,17.97
2018-07-12T01:39:15.795Z,17.85
2018-07-12T01:40:15.783Z,17.82
2018-07-12T01:41:15.812Z,17.74
2018-07-12T01:42:15.797Z,17.7
2018-07-12T01:43:15.809Z,17.78
2018-07-12T01:44:15.789Z,17.72
2018-07-12T01:45:15.785Z,17.63
2018-07-12T01:46:15.538Z,17.63
2018-07-12T01:47:15.300Z,17.6
2018-07-12T01:48:15.548Z,17.54
2018-07-12T01:49:15.778Z,17.63
2018-07-12T01:50:15.548Z,17.7
2018-07-12T01:51:15.785Z,17.65
2018-07-12T01:52:15.786Z,17.76
2018-07-12T01:53:15.532Z,17.78
2018-07-12T01:54:15.546Z,17.78
2018-07-12T01:55:15.273Z,17.72
2018-07-12T01:56:15.815Z,17.7
2018-07-12T01:57:15.793Z,17.85
2018-07-12T01:58:15.800Z,17.79
2018-07-12T01:59:15.524Z,17.9
2018-07-12T02:00:15.529Z,18
2018-07-12T02:01:15.537Z,17.97
2018-07-12T02:02:15.540Z,17.95
2018-07-12T02:03:15.790Z,17.95
2018-07-12T02:04:15.786Z,17.8
2018-07-12T02:05:15.534Z,17.76
2018-07-12T02:06:15.789Z,17.65
2018-07-12T02:07:15.525Z,17.63
2018-07-12T02:08:15.540Z,17.54
2018-07-12T02:09:15.776Z,17.42
2018-07-12T02:10:15.795Z,17.48
2018-07-12T02:11:15.796Z,17.33
2018-07-12T02:12:15.545Z,17.29
2018-07-12T02:13:15.517Z,17.29
2018-07-12T02:14:15.777Z,17.3
2018-07-12T02:15:15.528Z,17.24
2018-07-12T02:16:15.780Z,17.26
2018-07-12T02:17:15.806Z,17.24
2018-07-12T02:18:15.518Z,17.19
2018-07-12T02:19:15.512Z,17.23
2018-07-12T02:20:15.770Z,17.3
2018-07-12T02:21:15.514Z,17.27
2018-07-12T02:22:15.511Z,17.31
2018-07-12T02:23:15.769Z,17.42
2018-07-12T02:24:15.516Z,17.36
2018-07-12T02:25:15.768Z,17.31
2018-07-12T02:26:15.767Z,17.34
2018-07-12T02:27:15.770Z,17.52
2018-07-12T02:28:15.522Z,17.56
2018-07-12T02:29:15.766Z,17.67
2018-07-12T02:30:15.535Z,17.74
2018-07-12T02:31:15.538Z,17.74
2018-07-12T02:32:15.506Z,17.85
2018-07-12T02:33:15.777Z,17.8
2018-07-12T02:34:15.256Z,17.74
2018-07-12T02:35:16.131Z,17.74
2018-07-12T02:36:15.769Z,17.83
2018-07-12T02:37:15.768Z,17.82
2018-07-12T02:38:15.519Z,17.78
2018-07-12T02:39:15.784Z,17.76
2018-07-12T02:40:15.780Z,17.8
2018-07-12T02:41:15.540Z,17.74
2018-07-12T02:42:15.522Z,17.79
2018-07-12T02:43:15.773Z,17.83
2018-07-12T02:44:15.513Z,17.82
2018-07-12T02:45:15.787Z,17.83
2018-07-12T02:46:15.796Z,17.83
2018-07-12T02:47:15.518Z,17.85
2018-07-12T02:48:15.509Z,17.79
2018-07-12T02:49:15.275Z,17.89
2018-07-12T02:50:15.859Z,17.97
2018-07-12T02:51:15.764Z,17.98
2018-07-12T02:52:15.779Z,17.87
2018-07-12T02:53:15.267Z,18.03
2018-07-12T02:54:15.504Z,18.03
2018-07-12T02:55:15.551Z,18.05
2018-07-12T02:56:15.789Z,17.97
2018-07-12T02:57:15.772Z,17.94
2018-07-12T02:58:15.514Z,17.95
2018-07-12T02:59:15.899Z,17.89
2018-07-12T03:00:15.830Z,17.78
2018-07-12T03:01:17.107Z,17.76
2018-07-12T03:02:15.777Z,17.78
2018-07-12T03:03:15.517Z,17.76
2018-07-12T03:04:15.541Z,17.65
2018-07-12T03:05:15.765Z,17.63
2018-07-12T03:06:15.513Z,17.71
2018-07-12T03:07:15.509Z,17.72
2018-07-12T03:08:15.513Z,17.74
2018-07-12T03:09:15.517Z,17.82
2018-07-12T03:10:15.800Z,17.82
2018-07-12T03:11:15.528Z,17.82
2018-07-12T03:12:15.763Z,17.82
2018-07-12T03:13:15.528Z,17.9
2018-07-12T03:14:15.526Z,17.94
2018-07-12T03:15:15.335Z,18.01
2018-07-12T03:16:15.777Z,18.15
2018-07-12T03:17:15.757Z,18.18
2018-07-12T03:18:15.511Z,18.13
2018-07-12T03:19:15.787Z,18.1
2018-07-12T03:20:15.761Z,18.23
2018-07-12T03:21:15.508Z,18.13
2018-07-12T03:22:15.805Z,18.11
2018-07-12T03:23:15.530Z,18
2018-07-12T03:24:15.517Z,18.08
2018-07-12T03:25:15.789Z,18.03
2018-07-12T03:26:15.767Z,18.03
2018-07-12T03:27:15.254Z,18.07
2018-07-12T03:28:15.522Z,17.97
2018-07-12T03:29:15.258Z,18.08
2018-07-12T03:30:15.602Z,18.03
2018-07-12T03:31:15.769Z,18.04
2018-07-12T03:32:15.517Z,18.01
2018-07-12T03:33:15.756Z,18
2018-07-12T03:34:15.504Z,18.07
2018-07-12T03:35:15.872Z,17.97
2018-07-12T03:36:15.761Z,18.05
2018-07-12T03:37:15.770Z,17.94
2018-07-12T03:38:15.771Z,18.04
2018-07-12T03:39:15.508Z,17.92
2018-07-12T03:40:15.767Z,17.98
2018-07-12T03:41:15.529Z,17.95
2018-07-12T03:42:15.510Z,17.92
2018-07-12T03:43:15.773Z,17.95
2018-07-12T03:44:15.781Z,17.92
2018-07-12T03:45:15.766Z,17.89
2018-07-12T03:46:15.519Z,17.95
2018-07-12T03:47:15.270Z,17.97
2018-07-12T03:48:15.520Z,17.92
2018-07-12T03:49:15.511Z,17.94
2018-07-12T03:50:15.516Z,17.87
2018-07-12T03:51:15.784Z,18.01
2018-07-12T03:52:15.513Z,18
2018-07-12T03:53:15.824Z,18.07
2018-07-12T03:54:15.266Z,18.01
2018-07-12T03:55:15.517Z,18.07
2018-07-12T03:56:15.782Z,18.04
2018-07-12T03:57:15.768Z,17.9
2018-07-12T03:58:15.508Z,17.89
2018-07-12T03:59:15.513Z,17.98
2018-07-12T04:00:15.771Z,17.89
2018-07-12T04:01:15.915Z,17.95
2018-07-12T04:02:15.545Z,17.98
2018-07-12T04:03:15.773Z,18.03
2018-07-12T04:04:15.527Z,17.97
2018-07-12T04:05:15.787Z,18.1
2018-07-12T04:06:15.518Z,18
2018-07-12T04:07:15.768Z,18.08
2018-07-12T04:08:15.771Z,18.01
2018-07-12T04:09:15.775Z,18.1
2018-07-12T04:10:15.512Z,18.07
2018-07-12T04:11:15.776Z,18.16
2018-07-12T04:12:15.767Z,18.13
2018-07-12T04:13:15.771Z,18.16
2018-07-12T04:14:15.515Z,18.26
2018-07-12T04:15:15.770Z,18.23
2018-07-12T04:16:15.772Z,18.22
2018-07-12T04:17:15.274Z,18.29
2018-07-12T04:18:15.514Z,18.29
2018-07-12T04:19:15.765Z,18.29
2018-07-12T04:20:15.535Z,18.29
2018-07-12T04:21:15.769Z,18.23
2018-07-12T04:22:15.535Z,18.08
2018-07-12T04:23:15.257Z,18.05
2018-07-12T04:24:15.516Z,18.11
2018-07-12T04:25:15.768Z,18.1
2018-07-12T04:26:15.273Z,18.07
2018-07-12T04:27:15.776Z,18.11
2018-07-12T04:28:15.259Z,18.23
2018-07-12T04:29:15.517Z,18.38
2018-07-12T04:30:15.773Z,18.45
2018-07-12T04:31:15.516Z,18.47
2018-07-12T04:32:15.514Z,18.59
2018-07-12T04:33:15.516Z,18.53
2018-07-12T04:34:15.781Z,18.49
2018-07-12T04:35:15.786Z,18.62
2018-07-12T04:36:15.789Z,18.7
2018-07-12T04:37:15.785Z,18.95
2018-07-12T04:38:15.525Z,19.16
2018-07-12T04:39:15.777Z,19.09
2018-07-12T04:40:15.278Z,19.14
2018-07-12T04:41:15.523Z,19.18
2018-07-12T04:42:15.529Z,19.07
2018-07-12T04:43:15.530Z,19.12
2018-07-12T04:44:15.539Z,19.16
2018-07-12T04:45:15.525Z,19.14
2018-07-12T04:46:15.790Z,19.16
2018-07-12T04:47:15.541Z,19.19
2018-07-12T04:48:15.541Z,19.12
2018-07-12T04:49:15.803Z,19.19
2018-07-12T04:50:15.554Z,19.18
2018-07-12T04:51:15.663Z,19.16
2018-07-12T04:52:15.791Z,19.15
2018-07-12T04:53:15.538Z,19.14
2018-07-12T04:54:15.552Z,19.16
2018-07-12T04:55:15.854Z,19.16
2018-07-12T04:56:15.540Z,19.12
2018-07-12T04:57:15.802Z,19.26
2018-07-12T04:58:16.142Z,19.26
2018-07-12T04:59:15.808Z,19.33
2018-07-12T05:00:15.812Z,19.41
2018-07-12T05:01:15.311Z,19.45
2018-07-12T05:02:15.863Z,19.31
2018-07-12T05:03:15.603Z,19.27
2018-07-12T05:04:15.562Z,19.27
2018-07-12T05:05:15.926Z,19.3
2018-07-12T05:06:15.317Z,19.22
2018-07-12T05:07:15.826Z,19.31
2018-07-12T05:08:15.722Z,19.34
2018-07-12T05:09:15.316Z,19.27
2018-07-12T05:10:15.828Z,19.26
2018-07-12T05:11:15.571Z,19.3
2018-07-12T05:12:15.827Z,19.21
2018-07-12T05:13:15.832Z,19.24
2018-07-12T05:14:15.825Z,19.26
2018-07-12T05:15:15.836Z,19.19
2018-07-12T05:16:16.052Z,19.27
2018-07-12T05:17:15.829Z,19.18
2018-07-12T05:18:15.591Z,19.24
2018-07-12T05:19:15.846Z,19.29
2018-07-12T05:20:15.837Z,19.29
2018-07-12T05:21:15.835Z,19.34
2018-07-12T05:22:15.839Z,19.27
2018-07-12T05:23:15.834Z,19.3
2018-07-12T05:24:15.332Z,19.47
2018-07-12T05:25:15.688Z,19.48
2018-07-12T05:26:15.327Z,19.59
2018-07-12T05:27:15.585Z,19.63
2018-07-12T05:28:15.841Z,19.69
2018-07-12T05:29:15.582Z,19.79
2018-07-12T05:30:15.894Z,19.86
2018-07-12T05:31:15.847Z,19.79
2018-07-12T05:32:15.912Z,19.79
2018-07-12T05:33:15.850Z,19.88
2018-07-12T05:34:15.386Z,19.94
2018-07-12T05:35:15.644Z,20
2018-07-12T05:36:15.877Z,20.06
2018-07-12T05:37:15.611Z,20.16
2018-07-12T05:38:15.608Z,20.13
2018-07-12T05:39:15.787Z,20.18
2018-07-12T05:40:15.863Z,20.18
2018-07-12T05:41:15.351Z,20.19
2018-07-12T05:42:15.990Z,20.26
2018-07-12T05:43:15.359Z,20.32
2018-07-12T05:44:15.884Z,20.43
2018-07-12T05:45:15.363Z,20.44
2018-07-12T05:46:15.380Z,20.51
2018-07-12T05:47:15.872Z,20.48
2018-07-12T05:48:15.881Z,20.34
2018-07-12T05:49:15.964Z,20.4
2018-07-12T05:50:15.620Z,20.34
2018-07-12T05:51:15.878Z,20.34
2018-07-12T05:52:15.640Z,20.34
2018-07-12T05:53:15.635Z,20.48
2018-07-12T05:54:15.628Z,20.55
2018-07-12T05:55:15.689Z,20.52
2018-07-12T05:56:16.051Z,20.5
2018-07-12T05:57:15.905Z,20.41
2018-07-12T05:58:15.906Z,20.44
2018-07-12T05:59:15.639Z,20.5
2018-07-12T06:00:15.427Z,20.58
2018-07-12T06:01:15.909Z,20.43
2018-07-12T06:02:17.405Z,20.47
2018-07-12T06:03:15.654Z,20.41
2018-07-12T06:04:15.910Z,20.39
2018-07-12T06:05:15.651Z,20.31
2018-07-12T06:06:15.463Z,20.39
2018-07-12T06:07:15.664Z,20.34
2018-07-12T06:08:15.660Z,20.25
2018-07-12T06:09:15.412Z,20.03
2018-07-12T06:10:15.923Z,19.96
2018-07-12T06:11:15.938Z,19.86
2018-07-12T06:12:15.413Z,19.88
2018-07-12T06:13:16.127Z,19.84
2018-07-12T06:14:15.671Z,19.74
2018-07-12T06:24:43.929Z,19.11
2018-07-12T06:25:43.813Z,19.09
2018-07-12T06:26:43.819Z,19.11
2018-07-12T06:27:43.813Z,19.14
2018-07-12T06:28:43.556Z,19.07
2018-07-12T06:29:43.821Z,19.07
2018-07-12T06:30:43.810Z,19.14
2018-07-12T06:31:43.807Z,19.09
2018-07-12T06:32:43.298Z,19.18
2018-07-12T06:33:43.808Z,19.18
2018-07-12T06:34:43.804Z,19.22
2018-07-12T06:35:43.805Z,19.31
2018-07-12T06:36:43.807Z,19.24
2018-07-12T06:37:43.551Z,19.36
2018-07-12T06:38:43.821Z,19.36
2018-07-12T06:39:43.806Z,19.27
2018-07-12T06:40:43.550Z,19.41
2018-07-12T06:41:43.800Z,19.26
2018-07-12T06:42:44.023Z,19.27
2018-07-12T06:43:43.554Z,19.26
2018-07-12T06:44:43.552Z,19.33
2018-07-12T06:45:43.840Z,19.3
2018-07-12T06:46:43.809Z,19.3
2018-07-12T06:47:43.808Z,19.3
2018-07-12T06:48:43.827Z,19.31
2018-07-12T06:49:43.563Z,19.33
2018-07-12T06:50:43.813Z,19.33
2018-07-12T06:51:43.842Z,19.33
2018-07-12T06:52:43.605Z,19.33
2018-07-12T06:53:43.562Z,19.34
2018-07-12T06:54:43.830Z,19.4
2018-07-12T06:55:43.841Z,19.3
2018-07-12T06:56:43.320Z,19.31
2018-07-12T06:57:43.571Z,19.45
2018-07-12T06:58:43.574Z,19.36
2018-07-12T06:59:43.675Z,19.31
2018-07-12T07:00:43.989Z,19.31
2018-07-12T07:01:43.844Z,19.24
2018-07-12T07:02:43.827Z,19.26
2018-07-12T07:03:43.575Z,19.34
2018-07-12T07:04:43.831Z,19.24
2018-07-12T07:05:43.830Z,19.29
2018-07-12T07:06:43.605Z,19.29
2018-07-12T07:07:43.854Z,19.09
2018-07-12T07:08:43.872Z,18.74
2018-07-12T07:09:44.663Z,18.59
2018-07-12T07:10:43.839Z,18.33
2018-07-12T07:11:43.831Z,18.1
2018-07-12T07:12:43.837Z,17.98
2018-07-12T07:13:43.584Z,17.76
2018-07-12T07:14:43.792Z,17.8
2018-07-12T07:15:43.596Z,17.67
2018-07-12T07:16:43.589Z,17.64
2018-07-12T07:17:43.845Z,17.6
2018-07-12T07:18:43.335Z,17.48
2018-07-12T07:19:43.831Z,17.42
2018-07-12T07:20:43.837Z,17.41
2018-07-12T07:21:43.856Z,17.48
2018-07-12T07:22:43.611Z,17.48
2018-07-12T07:23:43.864Z,17.57
2018-07-12T07:24:43.642Z,17.59
2018-07-12T07:25:43.733Z,17.54
2018-07-12T07:26:43.335Z,17.6
2018-07-12T07:27:43.602Z,17.64
2018-07-12T07:28:43.604Z,17.72
2018-07-12T07:29:43.834Z,17.7
2018-07-12T07:30:43.702Z,17.68
2018-07-12T07:31:43.855Z,17.74
2018-07-12T07:32:43.837Z,17.7
2018-07-12T07:33:43.861Z,17.63
2018-07-12T07:34:43.588Z,17.6
2018-07-12T07:35:44.041Z,17.59
2018-07-12T07:36:43.336Z,17.63
2018-07-12T07:37:43.850Z,17.52
2018-07-12T07:38:43.593Z,17.57
2018-07-12T07:39:44.646Z,17.54
2018-07-12T07:40:43.609Z,17.52
2018-07-12T07:41:43.602Z,17.48
2018-07-12T07:42:43.849Z,17.49
2018-07-12T07:43:43.595Z,17.46
2018-07-12T07:44:43.590Z,17.54
2018-07-12T07:45:43.869Z,17.57
2018-07-12T07:46:43.610Z,17.63
2018-07-12T07:47:43.599Z,17.54
2018-07-12T07:48:43.591Z,17.67
2018-07-12T07:49:43.592Z,17.59
2018-07-12T07:50:43.854Z,17.72
2018-07-12T07:51:43.846Z,17.72
2018-07-12T07:52:43.596Z,17.92
2018-07-12T07:53:43.849Z,17.98
2018-07-12T07:54:43.870Z,17.94
2018-07-12T07:55:43.854Z,17.94
2018-07-12T07:56:43.843Z,17.86
2018-07-12T07:57:43.616Z,17.98
2018-07-12T07:58:43.855Z,18.04
2018-07-12T07:59:43.613Z,18.15
2018-07-12T08:00:43.861Z,18.26
2018-07-12T08:01:43.615Z,18.45
2018-07-12T08:02:43.600Z,18.62
2018-07-12T08:03:43.358Z,18.9
2018-07-12T08:04:43.619Z,19.07
2018-07-12T08:05:43.618Z,19.27
2018-07-12T08:06:43.637Z,19.4
2018-07-12T08:07:43.399Z,19.33
2018-07-12T08:08:43.871Z,19.47
2018-07-12T08:09:43.632Z,19.58
2018-07-12T08:10:43.882Z,19.69
2018-07-12T08:11:43.363Z,19.64
2018-07-12T08:12:43.632Z,19.63
2018-07-12T08:13:43.627Z,19.77
2018-07-12T08:14:43.369Z,19.81
2018-07-12T08:15:43.893Z,19.95
2018-07-12T08:16:43.409Z,19.95
2018-07-12T08:17:43.649Z,20.09
2018-07-12T08:18:43.395Z,20.18
2018-07-12T08:19:43.638Z,20.32
2018-07-12T08:20:43.643Z,20.36
2018-07-12T08:21:43.642Z,20.48
2018-07-12T08:22:43.381Z,20.58
2018-07-12T08:23:43.390Z,20.7
2018-07-12T08:24:43.917Z,20.9
2018-07-12T08:25:43.408Z,21.15
2018-07-12T08:26:43.652Z,21.36
2018-07-12T08:27:43.648Z,21.58
2018-07-12T08:28:43.967Z,22.06
2018-07-12T08:29:43.913Z,22.59
2018-07-12T08:30:43.907Z,23.08
2018-07-12T08:31:43.666Z,23.46
2018-07-12T08:32:43.422Z,23.81
2018-07-12T08:33:43.675Z,24.43
2018-07-12T08:34:43.946Z,24.77
2018-07-12T08:35:43.804Z,25.21
2018-07-12T08:36:43.441Z,25.48
2018-07-12T08:37:43.703Z,25.72
2018-07-12T08:38:43.758Z,25.87
2018-07-12T08:39:43.966Z,25.68
2018-07-12T08:40:44.140Z,25.69
2018-07-12T08:41:43.454Z,25.93
2018-07-12T08:42:43.836Z,26.25
2018-07-12T08:43:43.991Z,26.8
2018-07-12T08:44:43.742Z,26.99
2018-07-12T08:45:43.739Z,27.27
2018-07-12T08:46:43.735Z,27.75
2018-07-12T08:47:44.000Z,27.65
2018-07-12T08:48:43.757Z,27.64
2018-07-12T08:49:43.506Z,27.89
2018-07-12T08:50:44.089Z,27.89
2018-07-12T08:51:44.023Z,27.93
2018-07-12T08:52:44.024Z,27.9
2018-07-12T08:53:43.779Z,27.39
2018-07-12T08:54:44.264Z,26.89
2018-07-12T08:55:43.838Z,26.55
2018-07-12T08:56:44.054Z,26.21
2018-07-12T08:57:44.078Z,26.18
2018-07-12T08:58:43.829Z,26.37
2018-07-12T08:59:44.081Z,26.16
2018-07-12T09:00:43.838Z,25.93
2018-07-12T09:01:43.828Z,25.83
2018-07-12T09:02:44.063Z,25.65
2018-07-12T09:03:43.850Z,25.44
2018-07-12T09:04:44.101Z,25.13
2018-07-12T09:05:44.129Z,24.88
2018-07-12T09:06:43.868Z,24.42
2018-07-12T09:07:44.129Z,24.11
2018-07-12T09:08:44.127Z,23.92
2018-07-12T09:09:43.889Z,23.98
2018-07-12T09:10:43.890Z,23.77
2018-07-12T09:11:44.157Z,23.8
2018-07-12T09:12:43.916Z,23.55
2018-07-12T09:13:44.177Z,23.41
2018-07-12T09:14:44.176Z,23.28
2018-07-12T09:15:44.372Z,23.25
2018-07-12T09:16:43.935Z,23.13
2018-07-12T09:17:43.952Z,23.06
2018-07-12T09:18:44.199Z,22.9
2018-07-12T09:19:44.212Z,22.76
2018-07-12T09:20:44.202Z,22.8
2018-07-12T09:21:44.111Z,22.93
2018-07-12T09:22:44.212Z,23.15
2018-07-12T09:23:43.963Z,22.98
2018-07-12T09:24:44.239Z,22.88
2018-07-12T09:25:44.065Z,22.63
2018-07-12T09:26:43.731Z,22.53
2018-07-12T09:27:43.732Z,22.47
2018-07-12T09:28:43.986Z,22.36
2018-07-12T09:29:43.998Z,22.29
2018-07-12T09:30:44.071Z,22.47
2018-07-12T09:31:44.011Z,22.48
2018-07-12T09:32:44.005Z,22.54
2018-07-12T09:33:43.763Z,22.68
2018-07-12T09:34:44.066Z,22.7
2018-07-12T09:35:43.777Z,22.69
2018-07-12T09:36:44.044Z,22.8
2018-07-12T09:37:44.028Z,22.73
2018-07-12T09:38:44.299Z,22.83
2018-07-12T09:39:44.118Z,22.87
2018-07-12T09:40:43.790Z,22.9
2018-07-12T09:41:44.041Z,23.03
2018-07-12T09:42:44.305Z,23
2018-07-12T09:43:43.879Z,22.87
2018-07-12T09:44:44.070Z,22.83
2018-07-12T09:45:43.869Z,22.8
2018-07-12T09:46:43.830Z,22.72
2018-07-12T09:47:44.217Z,22.84
2018-07-12T09:48:44.088Z,23
2018-07-12T09:49:44.336Z,23.12
2018-07-12T09:50:44.442Z,23.18
2018-07-12T09:51:44.095Z,23
2018-07-12T09:52:44.383Z,22.88
2018-07-12T09:53:44.112Z,22.85
2018-07-12T09:54:44.126Z,22.88
2018-07-12T09:55:44.868Z,22.75
2018-07-12T09:56:44.865Z,22.76
2018-07-12T09:57:44.374Z,22.73
2018-07-12T09:58:44.374Z,22.88
2018-07-12T09:59:44.116Z,23.03
2018-07-12T10:00:44.383Z,23.06
2018-07-12T10:01:44.120Z,23.1
2018-07-12T10:02:44.399Z,23.06
2018-07-12T10:03:44.384Z,22.93
2018-07-12T10:04:44.389Z,22.85
2018-07-12T10:05:44.143Z,22.87
2018-07-12T10:06:44.141Z,23
2018-07-12T10:07:44.173Z,23.15
2018-07-12T10:08:44.161Z,23.28
2018-07-12T10:09:44.412Z,23.48
2018-07-12T10:10:44.603Z,23.56
2018-07-12T10:11:44.158Z,23.63
2018-07-12T10:12:43.914Z,23.77
2018-07-12T10:13:44.182Z,23.87
2018-07-12T10:14:44.181Z,23.84
2018-07-12T10:15:44.182Z,23.66
2018-07-12T10:16:44.438Z,23.51
2018-07-12T10:17:44.435Z,23.46
2018-07-12T10:18:44.186Z,23.43
2018-07-12T10:19:43.943Z,23.47
2018-07-12T10:20:44.203Z,23.48
2018-07-12T10:21:43.950Z,23.61
2018-07-12T10:22:44.200Z,23.73
2018-07-12T10:54:01.518Z,23.41
2018-07-12T10:55:01.268Z,23.48
2018-07-12T10:56:01.535Z,23.37
2018-07-12T10:57:01.269Z,23.47
2018-07-12T10:58:01.528Z,23.46
2018-07-12T10:59:01.715Z,23.48
2018-07-12T11:00:01.272Z,23.48
2018-07-12T11:01:01.278Z,23.37
2018-07-12T11:02:01.550Z,23.34
2018-07-12T11:03:01.547Z,23.25
2018-07-12T11:04:01.280Z,23.34
2018-07-12T11:05:01.037Z,23.39
2018-07-12T11:06:01.289Z,23.47
2018-07-12T11:07:01.296Z,23.54
2018-07-12T11:08:01.552Z,23.55
2018-07-12T11:09:01.048Z,23.56
2018-07-12T11:10:01.290Z,23.55
2018-07-12T11:11:01.548Z,23.56
2018-07-12T11:12:01.560Z,23.68
2018-07-12T11:13:01.058Z,23.78
2018-07-12T11:14:01.313Z,23.92
2018-07-12T11:15:01.312Z,23.96
2018-07-12T11:16:01.596Z,24.17
2018-07-12T11:17:01.336Z,24.16
2018-07-12T11:18:01.312Z,24.28
2018-07-12T11:19:01.337Z,24.4
2018-07-12T11:20:01.585Z,24.43
2018-07-12T11:21:01.105Z,24.42
2018-07-12T11:22:01.339Z,24.32
2018-07-12T11:23:01.098Z,24.28
2018-07-12T11:24:01.601Z,24.28
2018-07-12T11:25:01.355Z,24.33
2018-07-12T11:26:01.348Z,24.28
2018-07-12T11:27:01.612Z,24.45
2018-07-12T11:28:01.357Z,24.39
2018-07-12T11:29:02.414Z,24.57
2018-07-12T11:30:01.631Z,24.65
2018-07-12T11:31:01.371Z,24.65
2018-07-12T11:32:01.381Z,24.65
2018-07-12T11:33:01.390Z,24.66
2018-07-12T11:34:01.380Z,24.65
2018-07-12T11:35:01.147Z,24.65
2018-07-12T11:36:01.647Z,24.85
2018-07-12T11:37:01.502Z,25.04
2018-07-12T11:38:01.156Z,25.21
2018-07-12T11:39:02.470Z,25.38
2018-07-12T11:40:01.421Z,25.41
2018-07-12T11:41:01.412Z,25.6
2018-07-12T11:42:01.165Z,25.66
2018-07-12T11:43:01.425Z,25.63
2018-07-12T11:44:01.183Z,25.66
2018-07-12T11:45:01.698Z,25.35
2018-07-12T11:46:01.704Z,25.1
2018-07-12T11:47:01.449Z,24.93
2018-07-12T11:48:01.224Z,24.78
2018-07-12T11:49:01.204Z,24.54
2018-07-12T11:50:01.709Z,24.36
2018-07-12T11:51:01.655Z,24.47
2018-07-12T11:52:01.465Z,24.45
2018-07-12T11:53:02.013Z,24.26
2018-07-12T11:54:01.486Z,24.32
2018-07-12T11:55:01.532Z,24.29
2018-07-12T11:56:01.498Z,24.4
2018-07-12T11:57:01.745Z,24.51
2018-07-12T11:58:01.242Z,24.68
2018-07-12T11:59:01.769Z,24.76
2018-07-12T12:00:01.523Z,24.89
2018-07-12T12:01:01.781Z,24.88
2018-07-12T12:02:02.153Z,24.95
2018-07-12T12:03:01.768Z,24.98
2018-07-12T12:04:01.771Z,25.06
2018-07-12T12:05:01.534Z,25.36
2018-07-12T12:06:01.547Z,25.62
2018-07-12T12:07:02.102Z,25.81
2018-07-12T12:08:01.534Z,25.95
2018-07-12T12:09:01.793Z,25.96
2018-07-12T12:10:01.790Z,26.05
2018-07-12T12:11:01.829Z,26.28
2018-07-12T12:12:01.571Z,26.38
2018-07-12T12:13:02.201Z,26.68
2018-07-12T12:14:01.329Z,26.93
2018-07-12T12:15:01.321Z,27.05
2018-07-12T12:16:01.588Z,27.21
2018-07-12T12:17:01.582Z,27.36
2018-07-12T12:18:01.611Z,27.67
2018-07-12T12:19:01.346Z,27.73
2018-07-12T12:20:01.621Z,27.89
2018-07-12T12:21:01.866Z,27.78
2018-07-12T12:22:01.873Z,27.73
2018-07-12T12:23:01.881Z,27.68
2018-07-12T12:24:01.365Z,27.51
2018-07-12T12:25:01.879Z,27.21
2018-07-12T12:26:01.646Z,26.95
2018-07-12T12:27:01.919Z,26.75
2018-07-12T12:28:01.646Z,26.47
2018-07-12T12:29:01.928Z,26.52
2018-07-12T12:30:01.676Z,26.53
2018-07-12T12:31:01.922Z,26.6
2018-07-12T12:32:01.927Z,26.6
2018-07-12T12:33:01.426Z,26.56
2018-07-12T12:34:01.689Z,26.43
2018-07-12T12:35:01.937Z,26.47
2018-07-12T12:36:01.949Z,26.28
2018-07-12T12:37:01.694Z,26.06
2018-07-12T12:38:01.719Z,25.93
2018-07-12T12:39:01.975Z,25.88
2018-07-12T12:40:03.624Z,25.65
2018-07-12T12:41:01.465Z,25.63
2018-07-12T12:42:01.875Z,25.43
2018-07-12T12:43:01.486Z,25.4
2018-07-12T12:44:01.744Z,25.26
2018-07-12T12:45:01.741Z,25.26
2018-07-12T12:46:01.753Z,25.29
2018-07-12T12:47:02.001Z,25.29
2018-07-12T12:48:02.006Z,25.4
2018-07-12T12:49:01.756Z,25.55
2018-07-12T12:50:01.511Z,25.66
2018-07-12T12:51:02.312Z,25.53
2018-07-12T12:52:02.018Z,25.48
2018-07-12T12:53:01.781Z,25.5
2018-07-12T12:54:02.027Z,25.59
2018-07-12T12:55:01.791Z,25.75
2018-07-12T12:56:01.544Z,25.84
2018-07-12T12:57:01.803Z,25.98
2018-07-12T12:58:01.805Z,25.98
2018-07-12T12:59:01.812Z,26.13
2018-07-12T13:00:02.941Z,26.07
2018-07-12T13:01:01.810Z,26.26
2018-07-12T13:02:01.826Z,26.34
2018-07-12T13:03:01.826Z,26.38
2018-07-12T13:04:01.841Z,26.43
2018-07-12T13:05:01.584Z,26.48
2018-07-12T13:06:01.845Z,26.52
2018-07-12T13:07:01.664Z,26.48
2018-07-12T13:08:02.245Z,26.48
2018-07-12T13:09:02.121Z,26.55
2018-07-12T13:10:01.643Z,26.6
2018-07-12T13:11:02.167Z,26.63
2018-07-12T13:12:01.936Z,26.58
2018-07-12T13:13:02.127Z,26.55
2018-07-12T13:14:02.153Z,26.53
2018-07-12T13:15:02.143Z,26.53
2018-07-12T13:16:02.015Z,26.51
2018-07-12T13:17:01.641Z,26.29
2018-07-12T13:18:01.907Z,26.26
2018-07-12T13:19:01.907Z,26.06
2018-07-12T13:20:01.909Z,26.07
2018-07-12T13:21:02.159Z,26.23
2018-07-12T13:22:01.677Z,26.31
2018-07-12T13:23:01.939Z,26.33
2018-07-12T13:24:01.924Z,26.18
2018-07-12T13:25:01.948Z,25.88
2018-07-12T13:26:02.360Z,25.84
2018-07-12T13:27:02.209Z,25.7
2018-07-12T13:28:02.329Z,25.69
2018-07-12T13:29:02.226Z,25.59
2018-07-12T13:30:01.962Z,25.54
2018-07-12T13:31:01.959Z,25.65
2018-07-12T13:32:02.188Z,25.63
2018-07-12T13:33:01.983Z,25.73
2018-07-12T13:34:02.230Z,25.81
2018-07-12T13:35:01.994Z,25.73